Terminal Aerodrome Forecast
Issued by NWS

Home | Current Version | Previous Version | Text Only | Print | Product List | Glossary On
Versions: 1 2 3 4 5 6 7 8 9 10 11 12 13 14 15 16 17 18
000
FTUS43 KABR 061730
TAFPIR
TAF
KPIR 061730Z 0618/0718 14016KT 5SM -SHRA BKN015 BKN028 OVC040
     FM070400 VRB05KT 5SM BR OVC008
     FM070800 29009KT P6SM OVC010
     FM071200 30016KT P6SM BKN010 OVC025=

USA.gov is the U.S. government's official web portal to all federal, state and local government web resources and services.